sensor_id;sensor_type;location;lat;lon;timestamp;P1;durP1;ratioP1;P2;durP2;ratioP2
50900;SDS011;36879;51.416;6.678;2022-07-29T00:00:04;4.88;;;1.20;;
50900;SDS011;36879;51.416;6.678;2022-07-29T00:02:31;3.40;;;1.20;;
50900;SDS011;36879;51.416;6.678;2022-07-29T00:04:57;3.88;;;1.52;;
50900;SDS011;36879;51.416;6.678;2022-07-29T00:07:23;2.28;;;1.00;;
50900;SDS011;36879;51.416;6.678;2022-07-29T00:09:49;3.58;;;1.55;;
50900;SDS011;36879;51.416;6.678;2022-07-29T00:12:15;4.10;;;1.05;;
50900;SDS011;36879;51.416;6.678;2022-07-29T00:14:41;2.83;;;1.60;;
50900;SDS011;36879;51.416;6.678;2022-07-29T00:17:07;3.30;;;0.93;;
50900;SDS011;36879;51.416;6.678;2022-07-29T00:19:33;3.42;;;1.30;;
50900;SDS011;36879;51.416;6.678;2022-07-29T00:21:59;4.85;;;1.17;;
50900;SDS011;36879;51.416;6.678;2022-07-29T00:24:26;4.55;;;1.50;;
50900;SDS011;36879;51.416;6.678;2022-07-29T00:26:52;12.10;;;1.50;;
50900;SDS011;36879;51.416;6.678;2022-07-29T00:29:18;4.82;;;1.55;;
50900;SDS011;36879;51.416;6.678;2022-07-29T00:31:44;8.68;;;1.20;;
50900;SDS011;36879;51.416;6.678;2022-07-29T00:34:10;3.88;;;1.42;;
50900;SDS011;36879;51.416;6.678;2022-07-29T00:37:03;5.30;;;1.95;;
50900;SDS011;36879;51.416;6.678;2022-07-29T00:39:29;2.90;;;1.65;;
50900;SDS011;36879;51.416;6.678;2022-07-29T00:41:55;2.40;;;1.13;;
50900;SDS011;36879;51.416;6.678;2022-07-29T00:44:21;4.47;;;1.10;;
50900;SDS011;36879;51.416;6.678;2022-07-29T00:46:47;5.88;;;1.45;;
50900;SDS011;36879;51.416;6.678;2022-07-29T00:49:13;2.88;;;1.15;;
50900;SDS011;36879;51.416;6.678;2022-07-29T00:51:39;2.65;;;1.42;;
50900;SDS011;36879;51.416;6.678;2022-07-29T00:54:05;2.97;;;1.20;;
50900;SDS011;36879;51.416;6.678;2022-07-29T00:56:32;4.38;;;1.48;;
50900;SDS011;36879;51.416;6.678;2022-07-29T00:58:58;7.88;;;2.08;;
50900;SDS011;36879;51.416;6.678;2022-07-29T01:01:25;3.47;;;1.25;;
50900;SDS011;36879;51.416;6.678;2022-07-29T01:03:52;5.30;;;1.27;;
50900;SDS011;36879;51.416;6.678;2022-07-29T01:06:18;4.43;;;1.67;;
50900;SDS011;36879;51.416;6.678;2022-07-29T01:08:45;3.40;;;1.30;;
50900;SDS011;36879;51.416;6.678;2022-07-29T01:11:13;2.90;;;1.33;;
50900;SDS011;36879;51.416;6.678;2022-07-29T01:13:40;3.83;;;1.83;;
50900;SDS011;36879;51.416;6.678;2022-07-29T01:16:21;3.72;;;1.20;;
50900;SDS011;36879;51.416;6.678;2022-07-29T01:18:48;4.93;;;1.50;;
50900;SDS011;36879;51.416;6.678;2022-07-29T01:24:26;3.97;;;1.52;;
50900;SDS011;36879;51.416;6.678;2022-07-29T01:26:59;5.93;;;1.13;;
50900;SDS011;36879;51.416;6.678;2022-07-29T01:29:32;4.45;;;1.23;;
50900;SDS011;36879;51.416;6.678;2022-07-29T01:32:03;3.10;;;1.27;;
50900;SDS011;36879;51.416;6.678;2022-07-29T01:37:05;3.22;;;1.10;;
50900;SDS011;36879;51.416;6.678;2022-07-29T01:39:35;3.05;;;1.10;;
50900;SDS011;36879;51.416;6.678;2022-07-29T01:42:06;3.33;;;1.55;;
50900;SDS011;36879;51.416;6.678;2022-07-29T01:44:38;5.57;;;1.48;;
50900;SDS011;36879;51.416;6.678;2022-07-29T01:47:08;4.47;;;2.38;;
50900;SDS011;36879;51.416;6.678;2022-07-29T01:49:36;6.47;;;1.75;;
50900;SDS011;36879;51.416;6.678;2022-07-29T01:52:07;3.80;;;1.20;;
50900;SDS011;36879;51.416;6.678;2022-07-29T01:54:37;3.83;;;1.20;;
50900;SDS011;36879;51.416;6.678;2022-07-29T01:57:04;5.93;;;1.40;;
50900;SDS011;36879;51.416;6.678;2022-07-29T01:59:33;6.03;;;1.65;;
50900;SDS011;36879;51.416;6.678;2022-07-29T02:01:59;4.03;;;1.02;;
50900;SDS011;36879;51.416;6.678;2022-07-29T02:04:26;4.40;;;1.40;;
50900;SDS011;36879;51.416;6.678;2022-07-29T02:06:54;4.30;;;1.52;;
50900;SDS011;36879;51.416;6.678;2022-07-29T02:09:22;6.95;;;1.60;;
50900;SDS011;36879;51.416;6.678;2022-07-29T02:11:50;3.72;;;1.60;;
50900;SDS011;36879;51.416;6.678;2022-07-29T02:14:17;3.30;;;1.27;;
50900;SDS011;36879;51.416;6.678;2022-07-29T02:16:44;8.40;;;1.63;;
50900;SDS011;36879;51.416;6.678;2022-07-29T02:19:11;5.28;;;1.60;;
50900;SDS011;36879;51.416;6.678;2022-07-29T02:21:38;7.45;;;1.70;;
50900;SDS011;36879;51.416;6.678;2022-07-29T02:24:04;4.55;;;1.30;;
50900;SDS011;36879;51.416;6.678;2022-07-29T02:26:30;3.67;;;1.65;;
50900;SDS011;36879;51.416;6.678;2022-07-29T02:28:58;6.05;;;1.30;;
50900;SDS011;36879;51.416;6.678;2022-07-29T02:31:25;4.18;;;1.00;;
50900;SDS011;36879;51.416;6.678;2022-07-29T02:33:52;8.88;;;1.50;;
50900;SDS011;36879;51.416;6.678;2022-07-29T02:36:20;2.53;;;0.98;;
50900;SDS011;36879;51.416;6.678;2022-07-29T02:38:47;3.38;;;1.42;;
50900;SDS011;36879;51.416;6.678;2022-07-29T02:41:20;3.08;;;0.95;;
50900;SDS011;36879;51.416;6.678;2022-07-29T02:43:48;2.35;;;1.27;;
50900;SDS011;36879;51.416;6.678;2022-07-29T02:46:20;3.00;;;1.02;;
50900;SDS011;36879;51.416;6.678;2022-07-29T02:48:51;3.42;;;1.00;;
50900;SDS011;36879;51.416;6.678;2022-07-29T02:51:19;5.03;;;1.00;;
50900;SDS011;36879;51.416;6.678;2022-07-29T02:53:49;7.43;;;1.30;;
50900;SDS011;36879;51.416;6.678;2022-07-29T02:56:17;7.75;;;1.50;;
50900;SDS011;36879;51.416;6.678;2022-07-29T02:58:47;2.40;;;1.00;;
50900;SDS011;36879;51.416;6.678;2022-07-29T03:01:16;2.33;;;1.08;;
50900;SDS011;36879;51.416;6.678;2022-07-29T03:03:43;4.50;;;1.08;;
50900;SDS011;36879;51.416;6.678;2022-07-29T03:06:10;1.75;;;0.90;;
50900;SDS011;36879;51.416;6.678;2022-07-29T03:08:37;2.28;;;1.00;;
50900;SDS011;36879;51.416;6.678;2022-07-29T03:11:03;4.20;;;1.02;;
50900;SDS011;36879;51.416;6.678;2022-07-29T03:13:30;6.07;;;1.15;;
50900;SDS011;36879;51.416;6.678;2022-07-29T03:15:56;1.55;;;1.00;;
50900;SDS011;36879;51.416;6.678;2022-07-29T03:18:23;9.98;;;1.45;;
50900;SDS011;36879;51.416;6.678;2022-07-29T03:20:49;4.03;;;1.02;;
50900;SDS011;36879;51.416;6.678;2022-07-29T03:23:19;3.22;;;1.00;;
50900;SDS011;36879;51.416;6.678;2022-07-29T03:25:46;2.83;;;1.20;;
50900;SDS011;36879;51.416;6.678;2022-07-29T03:28:12;5.18;;;2.08;;
50900;SDS011;36879;51.416;6.678;2022-07-29T03:30:38;6.55;;;1.70;;
50900;SDS011;36879;51.416;6.678;2022-07-29T03:33:04;2.22;;;1.00;;
50900;SDS011;36879;51.416;6.678;2022-07-29T03:35:30;2.53;;;1.20;;
50900;SDS011;36879;51.416;6.678;2022-07-29T03:37:57;2.72;;;1.20;;
50900;SDS011;36879;51.416;6.678;2022-07-29T03:40:25;2.50;;;1.58;;
50900;SDS011;36879;51.416;6.678;2022-07-29T03:42:52;3.20;;;1.73;;
50900;SDS011;36879;51.416;6.678;2022-07-29T03:45:18;2.10;;;1.02;;
50900;SDS011;36879;51.416;6.678;2022-07-29T03:47:47;4.40;;;1.25;;
50900;SDS011;36879;51.416;6.678;2022-07-29T03:50:14;2.10;;;0.85;;
50900;SDS011;36879;51.416;6.678;2022-07-29T03:52:40;3.47;;;1.15;;
50900;SDS011;36879;51.416;6.678;2022-07-29T03:55:07;4.53;;;1.48;;
50900;SDS011;36879;51.416;6.678;2022-07-29T03:57:34;3.60;;;1.20;;
50900;SDS011;36879;51.416;6.678;2022-07-29T04:00:00;2.33;;;1.13;;
50900;SDS011;36879;51.416;6.678;2022-07-29T04:02:27;4.13;;;1.20;;
50900;SDS011;36879;51.416;6.678;2022-07-29T04:04:53;6.43;;;1.60;;
50900;SDS011;36879;51.416;6.678;2022-07-29T04:07:19;5.57;;;1.65;;
50900;SDS011;36879;51.416;6.678;2022-07-29T04:09:45;4.15;;;1.27;;
50900;SDS011;36879;51.416;6.678;2022-07-29T04:12:11;4.38;;;1.73;;
50900;SDS011;36879;51.416;6.678;2022-07-29T04:14:37;6.20;;;1.77;;
50900;SDS011;36879;51.416;6.678;2022-07-29T04:17:04;7.32;;;2.00;;
50900;SDS011;36879;51.416;6.678;2022-07-29T04:19:30;2.92;;;1.63;;
50900;SDS011;36879;51.416;6.678;2022-07-29T04:21:57;8.88;;;1.92;;
50900;SDS011;36879;51.416;6.678;2022-07-29T04:24:23;5.18;;;2.60;;
50900;SDS011;36879;51.416;6.678;2022-07-29T04:26:49;5.13;;;2.35;;
50900;SDS011;36879;51.416;6.678;2022-07-29T04:29:17;5.65;;;2.00;;
50900;SDS011;36879;51.416;6.678;2022-07-29T04:31:43;5.90;;;2.20;;
50900;SDS011;36879;51.416;6.678;2022-07-29T04:34:09;6.28;;;2.53;;
50900;SDS011;36879;51.416;6.678;2022-07-29T04:36:36;8.63;;;2.70;;
50900;SDS011;36879;51.416;6.678;2022-07-29T04:39:02;8.75;;;3.22;;
50900;SDS011;36879;51.416;6.678;2022-07-29T04:41:28;3.70;;;2.50;;
50900;SDS011;36879;51.416;6.678;2022-07-29T04:43:54;4.35;;;2.85;;
50900;SDS011;36879;51.416;6.678;2022-07-29T04:46:20;6.95;;;3.30;;
50900;SDS011;36879;51.416;6.678;2022-07-29T04:48:46;4.82;;;2.80;;
50900;SDS011;36879;51.416;6.678;2022-07-29T04:51:13;4.20;;;2.50;;
50900;SDS011;36879;51.416;6.678;2022-07-29T04:53:39;7.00;;;3.08;;
50900;SDS011;36879;51.416;6.678;2022-07-29T04:56:05;6.32;;;3.03;;
50900;SDS011;36879;51.416;6.678;2022-07-29T04:58:31;8.32;;;3.05;;
50900;SDS011;36879;51.416;6.678;2022-07-29T05:00:59;5.15;;;2.78;;
50900;SDS011;36879;51.416;6.678;2022-07-29T05:03:25;7.82;;;2.97;;
50900;SDS011;36879;51.416;6.678;2022-07-29T05:05:51;9.13;;;2.83;;
50900;SDS011;36879;51.416;6.678;2022-07-29T05:08:17;6.07;;;2.90;;
50900;SDS011;36879;51.416;6.678;2022-07-29T05:10:43;9.23;;;3.30;;
50900;SDS011;36879;51.416;6.678;2022-07-29T05:13:09;4.75;;;2.45;;
50900;SDS011;36879;51.416;6.678;2022-07-29T05:15:36;4.88;;;2.75;;
50900;SDS011;36879;51.416;6.678;2022-07-29T05:18:02;9.75;;;2.80;;
50900;SDS011;36879;51.416;6.678;2022-07-29T05:20:28;6.88;;;3.28;;
50900;SDS011;36879;51.416;6.678;2022-07-29T05:22:56;8.05;;;3.70;;
50900;SDS011;36879;51.416;6.678;2022-07-29T05:25:22;9.13;;;4.05;;
50900;SDS011;36879;51.416;6.678;2022-07-29T05:27:48;9.82;;;4.40;;
50900;SDS011;36879;51.416;6.678;2022-07-29T05:30:14;7.82;;;4.50;;
50900;SDS011;36879;51.416;6.678;2022-07-29T05:32:40;7.72;;;3.92;;
50900;SDS011;36879;51.416;6.678;2022-07-29T05:35:07;9.70;;;4.40;;
50900;SDS011;36879;51.416;6.678;2022-07-29T05:37:33;6.22;;;3.72;;
50900;SDS011;36879;51.416;6.678;2022-07-29T05:39:59;7.60;;;2.90;;
50900;SDS011;36879;51.416;6.678;2022-07-29T05:42:25;10.05;;;3.30;;
50900;SDS011;36879;51.416;6.678;2022-07-29T05:44:51;6.75;;;3.40;;
50900;SDS011;36879;51.416;6.678;2022-07-29T05:47:18;10.30;;;3.67;;
50900;SDS011;36879;51.416;6.678;2022-07-29T05:49:44;9.65;;;3.17;;
50900;SDS011;36879;51.416;6.678;2022-07-29T05:52:11;9.00;;;4.53;;
50900;SDS011;36879;51.416;6.678;2022-07-29T05:54:38;6.38;;;3.60;;
50900;SDS011;36879;51.416;6.678;2022-07-29T05:57:04;6.85;;;3.00;;
50900;SDS011;36879;51.416;6.678;2022-07-29T05:59:31;10.15;;;3.45;;
50900;SDS011;36879;51.416;6.678;2022-07-29T06:01:57;5.88;;;3.22;;
50900;SDS011;36879;51.416;6.678;2022-07-29T06:04:23;6.97;;;4.43;;
50900;SDS011;36879;51.416;6.678;2022-07-29T06:06:49;5.72;;;3.20;;
50900;SDS011;36879;51.416;6.678;2022-07-29T06:09:15;5.38;;;3.00;;
50900;SDS011;36879;51.416;6.678;2022-07-29T06:11:41;5.65;;;2.75;;
50900;SDS011;36879;51.416;6.678;2022-07-29T06:14:07;10.50;;;2.83;;
50900;SDS011;36879;51.416;6.678;2022-07-29T06:16:34;3.95;;;2.05;;
50900;SDS011;36879;51.416;6.678;2022-07-29T06:19:00;5.15;;;2.60;;
50900;SDS011;36879;51.416;6.678;2022-07-29T06:21:26;6.55;;;2.80;;
50900;SDS011;36879;51.416;6.678;2022-07-29T06:23:52;4.60;;;2.85;;
50900;SDS011;36879;51.416;6.678;2022-07-29T06:26:18;3.47;;;2.03;;
50900;SDS011;36879;51.416;6.678;2022-07-29T06:28:44;4.30;;;2.50;;
50900;SDS011;36879;51.416;6.678;2022-07-29T06:31:10;6.40;;;3.42;;
50900;SDS011;36879;51.416;6.678;2022-07-29T06:33:36;7.07;;;3.10;;
50900;SDS011;36879;51.416;6.678;2022-07-29T06:36:05;4.03;;;2.13;;
50900;SDS011;36879;51.416;6.678;2022-07-29T06:38:32;3.97;;;2.33;;
50900;SDS011;36879;51.416;6.678;2022-07-29T06:40:58;4.90;;;2.72;;
50900;SDS011;36879;51.416;6.678;2022-07-29T06:43:25;8.18;;;3.10;;
50900;SDS011;36879;51.416;6.678;2022-07-29T06:45:51;4.90;;;2.78;;
50900;SDS011;36879;51.416;6.678;2022-07-29T06:48:17;4.45;;;2.95;;
50900;SDS011;36879;51.416;6.678;2022-07-29T06:50:44;5.38;;;2.75;;
50900;SDS011;36879;51.416;6.678;2022-07-29T06:53:10;7.57;;;2.92;;
50900;SDS011;36879;51.416;6.678;2022-07-29T06:55:36;5.40;;;3.97;;
50900;SDS011;36879;51.416;6.678;2022-07-29T06:58:02;6.93;;;3.50;;
50900;SDS011;36879;51.416;6.678;2022-07-29T07:00:28;5.15;;;2.60;;
50900;SDS011;36879;51.416;6.678;2022-07-29T07:02:55;4.55;;;2.85;;
50900;SDS011;36879;51.416;6.678;2022-07-29T07:05:21;5.43;;;2.85;;
50900;SDS011;36879;51.416;6.678;2022-07-29T07:07:47;8.02;;;3.70;;
50900;SDS011;36879;51.416;6.678;2022-07-29T07:10:13;5.85;;;2.88;;
50900;SDS011;36879;51.416;6.678;2022-07-29T07:12:40;8.77;;;2.97;;
50900;SDS011;36879;51.416;6.678;2022-07-29T07:15:06;8.38;;;3.20;;
50900;SDS011;36879;51.416;6.678;2022-07-29T07:17:33;6.45;;;3.10;;
50900;SDS011;36879;51.416;6.678;2022-07-29T07:19:59;9.02;;;3.80;;
50900;SDS011;36879;51.416;6.678;2022-07-29T07:22:25;7.05;;;3.25;;
50900;SDS011;36879;51.416;6.678;2022-07-29T07:24:51;8.00;;;3.63;;
50900;SDS011;36879;51.416;6.678;2022-07-29T07:27:17;6.72;;;3.28;;
50900;SDS011;36879;51.416;6.678;2022-07-29T07:29:44;7.88;;;3.28;;
50900;SDS011;36879;51.416;6.678;2022-07-29T07:32:10;5.70;;;3.20;;
50900;SDS011;36879;51.416;6.678;2022-07-29T07:34:38;7.68;;;3.90;;
50900;SDS011;36879;51.416;6.678;2022-07-29T07:37:04;7.70;;;4.05;;
50900;SDS011;36879;51.416;6.678;2022-07-29T07:39:30;8.30;;;4.68;;
50900;SDS011;36879;51.416;6.678;2022-07-29T07:41:56;8.48;;;3.85;;
50900;SDS011;36879;51.416;6.678;2022-07-29T07:44:22;7.07;;;4.07;;
50900;SDS011;36879;51.416;6.678;2022-07-29T07:46:48;7.63;;;4.65;;
50900;SDS011;36879;51.416;6.678;2022-07-29T07:49:14;9.20;;;4.13;;
50900;SDS011;36879;51.416;6.678;2022-07-29T07:51:40;13.77;;;4.03;;
50900;SDS011;36879;51.416;6.678;2022-07-29T07:54:07;8.38;;;4.68;;
50900;SDS011;36879;51.416;6.678;2022-07-29T07:56:33;10.23;;;4.60;;
50900;SDS011;36879;51.416;6.678;2022-07-29T07:58:59;12.52;;;4.75;;
50900;SDS011;36879;51.416;6.678;2022-07-29T08:01:25;13.38;;;4.60;;
50900;SDS011;36879;51.416;6.678;2022-07-29T08:03:51;7.85;;;5.18;;
50900;SDS011;36879;51.416;6.678;2022-07-29T08:06:17;11.32;;;5.07;;
50900;SDS011;36879;51.416;6.678;2022-07-29T08:08:43;11.57;;;6.47;;
50900;SDS011;36879;51.416;6.678;2022-07-29T08:11:09;15.65;;;5.32;;
50900;SDS011;36879;51.416;6.678;2022-07-29T08:13:36;14.55;;;5.75;;
50900;SDS011;36879;51.416;6.678;2022-07-29T08:16:02;9.40;;;6.47;;
50900;SDS011;36879;51.416;6.678;2022-07-29T08:18:40;15.35;;;6.80;;
50900;SDS011;36879;51.416;6.678;2022-07-29T08:21:06;16.45;;;7.50;;
50900;SDS011;36879;51.416;6.678;2022-07-29T08:23:32;11.75;;;7.28;;
50900;SDS011;36879;51.416;6.678;2022-07-29T08:26:08;13.00;;;7.60;;
50900;SDS011;36879;51.416;6.678;2022-07-29T08:28:40;14.20;;;6.50;;
50900;SDS011;36879;51.416;6.678;2022-07-29T08:31:09;18.52;;;7.47;;
50900;SDS011;36879;51.416;6.678;2022-07-29T08:33:35;15.05;;;8.00;;
50900;SDS011;36879;51.416;6.678;2022-07-29T08:36:02;14.45;;;7.38;;
50900;SDS011;36879;51.416;6.678;2022-07-29T08:38:28;14.07;;;7.68;;
50900;SDS011;36879;51.416;6.678;2022-07-29T08:40:54;9.55;;;7.18;;
50900;SDS011;36879;51.416;6.678;2022-07-29T08:43:21;13.68;;;7.60;;
50900;SDS011;36879;51.416;6.678;2022-07-29T08:45:50;13.93;;;7.57;;
50900;SDS011;36879;51.416;6.678;2022-07-29T08:48:20;11.40;;;6.60;;
50900;SDS011;36879;51.416;6.678;2022-07-29T08:50:47;16.33;;;6.13;;
50900;SDS011;36879;51.416;6.678;2022-07-29T08:53:14;10.68;;;6.13;;
50900;SDS011;36879;51.416;6.678;2022-07-29T08:55:44;10.75;;;6.05;;
50900;SDS011;36879;51.416;6.678;2022-07-29T08:58:10;10.68;;;6.82;;
50900;SDS011;36879;51.416;6.678;2022-07-29T09:00:37;9.07;;;4.82;;
50900;SDS011;36879;51.416;6.678;2022-07-29T09:03:06;12.07;;;7.13;;
50900;SDS011;36879;51.416;6.678;2022-07-29T09:05:34;10.35;;;5.00;;
50900;SDS011;36879;51.416;6.678;2022-07-29T09:08:01;8.48;;;4.47;;
50900;SDS011;36879;51.416;6.678;2022-07-29T09:10:27;7.22;;;4.05;;
50900;SDS011;36879;51.416;6.678;2022-07-29T09:12:56;13.80;;;5.05;;
50900;SDS011;36879;51.416;6.678;2022-07-29T09:15:22;12.07;;;4.80;;
50900;SDS011;36879;51.416;6.678;2022-07-29T09:17:48;10.18;;;4.88;;
50900;SDS011;36879;51.416;6.678;2022-07-29T09:20:16;10.48;;;5.13;;
50900;SDS011;36879;51.416;6.678;2022-07-29T09:22:42;9.75;;;4.57;;
50900;SDS011;36879;51.416;6.678;2022-07-29T09:25:08;12.77;;;4.72;;
50900;SDS011;36879;51.416;6.678;2022-07-29T09:27:37;6.97;;;4.40;;
50900;SDS011;36879;51.416;6.678;2022-07-29T09:30:07;7.63;;;3.75;;
50900;SDS011;36879;51.416;6.678;2022-07-29T09:32:57;11.23;;;3.72;;
50900;SDS011;36879;51.416;6.678;2022-07-29T09:35:23;12.32;;;5.50;;
50900;SDS011;36879;51.416;6.678;2022-07-29T09:37:49;7.38;;;3.88;;
50900;SDS011;36879;51.416;6.678;2022-07-29T09:40:17;5.57;;;3.50;;
50900;SDS011;36879;51.416;6.678;2022-07-29T09:42:44;10.50;;;5.05;;
50900;SDS011;36879;51.416;6.678;2022-07-29T09:45:11;6.53;;;3.42;;
50900;SDS011;36879;51.416;6.678;2022-07-29T09:47:41;10.68;;;5.20;;
50900;SDS011;36879;51.416;6.678;2022-07-29T09:50:10;7.63;;;4.65;;
50900;SDS011;36879;51.416;6.678;2022-07-29T09:52:44;13.27;;;4.32;;
50900;SDS011;36879;51.416;6.678;2022-07-29T09:55:10;5.85;;;3.75;;
50900;SDS011;36879;51.416;6.678;2022-07-29T09:57:37;13.57;;;4.53;;
50900;SDS011;36879;51.416;6.678;2022-07-29T10:00:04;8.48;;;4.13;;
50900;SDS011;36879;51.416;6.678;2022-07-29T10:02:32;7.10;;;4.18;;
50900;SDS011;36879;51.416;6.678;2022-07-29T10:04:59;11.77;;;5.18;;
50900;SDS011;36879;51.416;6.678;2022-07-29T10:07:26;7.43;;;3.83;;
50900;SDS011;36879;51.416;6.678;2022-07-29T10:09:55;8.75;;;3.65;;
50900;SDS011;36879;51.416;6.678;2022-07-29T10:12:22;7.55;;;3.70;;
50900;SDS011;36879;51.416;6.678;2022-07-29T10:14:48;8.82;;;3.50;;
50900;SDS011;36879;51.416;6.678;2022-07-29T10:17:14;10.70;;;3.30;;
50900;SDS011;36879;51.416;6.678;2022-07-29T10:19:41;11.77;;;3.65;;
50900;SDS011;36879;51.416;6.678;2022-07-29T10:22:08;11.50;;;3.47;;
50900;SDS011;36879;51.416;6.678;2022-07-29T10:24:35;9.40;;;4.13;;
50900;SDS011;36879;51.416;6.678;2022-07-29T10:27:03;9.38;;;4.20;;
50900;SDS011;36879;51.416;6.678;2022-07-29T10:29:29;12.25;;;5.03;;
50900;SDS011;36879;51.416;6.678;2022-07-29T10:37:06;7.85;;;4.22;;
50900;SDS011;36879;51.416;6.678;2022-07-29T10:42:19;8.98;;;3.95;;
50900;SDS011;36879;51.416;6.678;2022-07-29T10:44:48;10.35;;;4.90;;
50900;SDS011;36879;51.416;6.678;2022-07-29T10:47:24;14.10;;;4.85;;
50900;SDS011;36879;51.416;6.678;2022-07-29T10:49:57;8.85;;;4.18;;
50900;SDS011;36879;51.416;6.678;2022-07-29T10:52:23;9.52;;;4.30;;
50900;SDS011;36879;51.416;6.678;2022-07-29T10:54:52;11.35;;;4.68;;
50900;SDS011;36879;51.416;6.678;2022-07-29T10:57:26;12.38;;;3.95;;
50900;SDS011;36879;51.416;6.678;2022-07-29T11:00:25;9.30;;;3.78;;
50900;SDS011;36879;51.416;6.678;2022-07-29T11:05:06;5.30;;;2.78;;
50900;SDS011;36879;51.416;6.678;2022-07-29T11:07:33;5.63;;;3.15;;
50900;SDS011;36879;51.416;6.678;2022-07-29T11:15:04;5.63;;;3.20;;
50900;SDS011;36879;51.416;6.678;2022-07-29T11:18:16;8.70;;;3.10;;
50900;SDS011;36879;51.416;6.678;2022-07-29T11:20:33;8.05;;;3.17;;
50900;SDS011;36879;51.416;6.678;2022-07-29T11:23:00;4.53;;;2.70;;
50900;SDS011;36879;51.416;6.678;2022-07-29T11:25:26;9.40;;;3.13;;
50900;SDS011;36879;51.416;6.678;2022-07-29T11:27:54;7.15;;;3.45;;
50900;SDS011;36879;51.416;6.678;2022-07-29T11:30:46;6.82;;;3.25;;
50900;SDS011;36879;51.416;6.678;2022-07-29T11:36:13;6.22;;;2.50;;
50900;SDS011;36879;51.416;6.678;2022-07-29T11:38:40;5.75;;;2.65;;
50900;SDS011;36879;51.416;6.678;2022-07-29T11:43:52;6.07;;;2.80;;
50900;SDS011;36879;51.416;6.678;2022-07-29T11:49:03;8.98;;;3.97;;
50900;SDS011;36879;51.416;6.678;2022-07-29T11:51:29;5.75;;;2.20;;
50900;SDS011;36879;51.416;6.678;2022-07-29T11:53:57;4.72;;;2.95;;
50900;SDS011;36879;51.416;6.678;2022-07-29T11:56:23;3.95;;;2.35;;
50900;SDS011;36879;51.416;6.678;2022-07-29T11:59:01;5.78;;;2.33;;
50900;SDS011;36879;51.416;6.678;2022-07-29T12:01:28;8.35;;;2.92;;
50900;SDS011;36879;51.416;6.678;2022-07-29T12:04:07;6.38;;;2.22;;
50900;SDS011;36879;51.416;6.678;2022-07-29T12:06:34;6.97;;;2.53;;
50900;SDS011;36879;51.416;6.678;2022-07-29T12:09:00;5.32;;;2.08;;
50900;SDS011;36879;51.416;6.678;2022-07-29T12:11:26;8.55;;;2.20;;
50900;SDS011;36879;51.416;6.678;2022-07-29T12:13:52;6.75;;;2.15;;
50900;SDS011;36879;51.416;6.678;2022-07-29T12:16:19;9.75;;;2.30;;
50900;SDS011;36879;51.416;6.678;2022-07-29T12:18:54;4.22;;;1.90;;
50900;SDS011;36879;51.416;6.678;2022-07-29T12:21:21;5.28;;;1.90;;
50900;SDS011;36879;51.416;6.678;2022-07-29T12:23:54;5.78;;;1.70;;
50900;SDS011;36879;51.416;6.678;2022-07-29T12:26:21;4.70;;;1.42;;
50900;SDS011;36879;51.416;6.678;2022-07-29T12:28:47;2.60;;;1.52;;
50900;SDS011;36879;51.416;6.678;2022-07-29T12:31:13;8.13;;;1.95;;
50900;SDS011;36879;51.416;6.678;2022-07-29T12:33:40;4.25;;;1.65;;
50900;SDS011;36879;51.416;6.678;2022-07-29T12:36:06;3.60;;;2.00;;
50900;SDS011;36879;51.416;6.678;2022-07-29T12:38:33;7.00;;;1.67;;
50900;SDS011;36879;51.416;6.678;2022-07-29T12:40:59;3.47;;;2.13;;
50900;SDS011;36879;51.416;6.678;2022-07-29T12:43:26;4.55;;;2.20;;
50900;SDS011;36879;51.416;6.678;2022-07-29T12:45:53;4.50;;;1.60;;
50900;SDS011;36879;51.416;6.678;2022-07-29T12:48:32;5.55;;;2.00;;
50900;SDS011;36879;51.416;6.678;2022-07-29T12:50:59;5.13;;;1.70;;
50900;SDS011;36879;51.416;6.678;2022-07-29T12:53:26;6.68;;;2.35;;
50900;SDS011;36879;51.416;6.678;2022-07-29T12:55:54;4.20;;;2.15;;
50900;SDS011;36879;51.416;6.678;2022-07-29T13:04:04;4.85;;;1.98;;
50900;SDS011;36879;51.416;6.678;2022-07-29T13:09:01;5.65;;;1.65;;
50900;SDS011;36879;51.416;6.678;2022-07-29T13:11:31;6.15;;;1.80;;
50900;SDS011;36879;51.416;6.678;2022-07-29T13:13:57;7.97;;;2.05;;
50900;SDS011;36879;51.416;6.678;2022-07-29T13:16:24;5.32;;;1.95;;
50900;SDS011;36879;51.416;6.678;2022-07-29T13:19:02;5.50;;;1.77;;
50900;SDS011;36879;51.416;6.678;2022-07-29T13:21:28;3.90;;;2.10;;
50900;SDS011;36879;51.416;6.678;2022-07-29T13:23:54;4.10;;;1.58;;
50900;SDS011;36879;51.416;6.678;2022-07-29T13:26:20;6.50;;;2.15;;
50900;SDS011;36879;51.416;6.678;2022-07-29T13:28:46;5.07;;;1.67;;
50900;SDS011;36879;51.416;6.678;2022-07-29T13:31:12;4.05;;;1.55;;
50900;SDS011;36879;51.416;6.678;2022-07-29T13:33:38;5.85;;;1.95;;
50900;SDS011;36879;51.416;6.678;2022-07-29T13:36:04;7.80;;;1.70;;
50900;SDS011;36879;51.416;6.678;2022-07-29T13:38:32;4.10;;;1.42;;
50900;SDS011;36879;51.416;6.678;2022-07-29T13:40:58;4.28;;;1.58;;
50900;SDS011;36879;51.416;6.678;2022-07-29T13:43:25;2.65;;;1.20;;
50900;SDS011;36879;51.416;6.678;2022-07-29T13:45:51;3.38;;;1.75;;
50900;SDS011;36879;51.416;6.678;2022-07-29T13:48:17;3.80;;;1.80;;
50900;SDS011;36879;51.416;6.678;2022-07-29T13:50:43;3.95;;;1.60;;
50900;SDS011;36879;51.416;6.678;2022-07-29T13:53:10;6.75;;;2.20;;
50900;SDS011;36879;51.416;6.678;2022-07-29T13:55:36;3.83;;;1.90;;
50900;SDS011;36879;51.416;6.678;2022-07-29T13:58:02;5.10;;;1.55;;
50900;SDS011;36879;51.416;6.678;2022-07-29T14:00:28;5.00;;;2.15;;
50900;SDS011;36879;51.416;6.678;2022-07-29T14:02:54;5.45;;;2.53;;
50900;SDS011;36879;51.416;6.678;2022-07-29T14:05:21;7.32;;;2.45;;
50900;SDS011;36879;51.416;6.678;2022-07-29T14:07:47;6.60;;;1.70;;
50900;SDS011;36879;51.416;6.678;2022-07-29T14:10:13;4.97;;;1.40;;
50900;SDS011;36879;51.416;6.678;2022-07-29T14:12:39;4.93;;;1.70;;
50900;SDS011;36879;51.416;6.678;2022-07-29T14:15:07;7.72;;;1.90;;
50900;SDS011;36879;51.416;6.678;2022-07-29T14:17:33;4.97;;;1.70;;
50900;SDS011;36879;51.416;6.678;2022-07-29T14:20:00;6.60;;;1.67;;
50900;SDS011;36879;51.416;6.678;2022-07-29T14:22:26;4.85;;;1.80;;
50900;SDS011;36879;51.416;6.678;2022-07-29T14:24:52;4.78;;;1.80;;
50900;SDS011;36879;51.416;6.678;2022-07-29T14:27:18;3.28;;;1.40;;
50900;SDS011;36879;51.416;6.678;2022-07-29T14:29:44;12.63;;;2.65;;
50900;SDS011;36879;51.416;6.678;2022-07-29T14:32:10;5.50;;;1.42;;
50900;SDS011;36879;51.416;6.678;2022-07-29T14:34:37;8.77;;;2.17;;
50900;SDS011;36879;51.416;6.678;2022-07-29T14:37:03;6.95;;;2.83;;
50900;SDS011;36879;51.416;6.678;2022-07-29T14:39:33;7.10;;;1.95;;
50900;SDS011;36879;51.416;6.678;2022-07-29T14:42:00;7.72;;;2.60;;
50900;SDS011;36879;51.416;6.678;2022-07-29T14:44:26;9.15;;;3.13;;
50900;SDS011;36879;51.416;6.678;2022-07-29T14:46:57;36.45;;;5.90;;
50900;SDS011;36879;51.416;6.678;2022-07-29T14:49:24;6.18;;;1.50;;
50900;SDS011;36879;51.416;6.678;2022-07-29T14:51:50;3.90;;;1.65;;
50900;SDS011;36879;51.416;6.678;2022-07-29T14:54:16;11.27;;;2.47;;
50900;SDS011;36879;51.416;6.678;2022-07-29T14:56:42;5.75;;;1.58;;
50900;SDS011;36879;51.416;6.678;2022-07-29T14:59:08;9.65;;;2.83;;
50900;SDS011;36879;51.416;6.678;2022-07-29T15:01:34;5.50;;;1.63;;
50900;SDS011;36879;51.416;6.678;2022-07-29T15:04:00;4.88;;;1.40;;
50900;SDS011;36879;51.416;6.678;2022-07-29T15:06:26;4.22;;;1.48;;
50900;SDS011;36879;51.416;6.678;2022-07-29T15:08:52;3.75;;;1.63;;
50900;SDS011;36879;51.416;6.678;2022-07-29T15:11:18;5.70;;;1.45;;
50900;SDS011;36879;51.416;6.678;2022-07-29T15:13:44;10.38;;;1.95;;
50900;SDS011;36879;51.416;6.678;2022-07-29T15:16:11;4.13;;;1.38;;
50900;SDS011;36879;51.416;6.678;2022-07-29T15:18:37;4.07;;;1.33;;
50900;SDS011;36879;51.416;6.678;2022-07-29T15:21:03;5.05;;;1.33;;
50900;SDS011;36879;51.416;6.678;2022-07-29T15:23:31;3.90;;;1.05;;